Time;durP1;ratioP1;P1;durP2;ratioP2;P2;SDS_P1;SDS_P2;PMS_P1;PMS_P2;Temp;Humidity;BMP_temperature;BMP_pressure;BME280_temperature;BME280_humidity;BME280_pressure;Samples;Min_cycle;Max_cycle;Signal;HPM_P1;HPM_P2
2023/05/05 00:02:19;;;;;;;12.00;7.80;;;;;;;12.26;57.27;99526.38;223478;182;148119;-64
2023/05/05 00:07:23;;;;;;;16.70;7.10;;;;;;;12.22;57.26;99523.06;223591;182;138882;-67
2023/05/05 00:12:26;;;;;;;16.40;6.90;;;;;;;12.18;57.82;99526.31;223709;181;138602;-64
2023/05/05 00:17:29;;;;;;;13.60;7.60;;;;;;;12.13;57.78;99526.64;223712;182;147748;-65
2023/05/05 00:22:32;;;;;;;15.90;7.40;;;;;;;12.10;57.98;99522.05;223609;182;139098;-63
2023/05/05 00:27:35;;;;;;;13.40;7.40;;;;;;;12.03;57.82;99514.77;223616;182;137367;-63
2023/05/05 00:32:42;;;;;;;13.90;6.90;;;;;;;11.99;58.19;99509.70;223689;182;147672;-63
2023/05/05 00:37:45;;;;;;;10.60;7.10;;;;;;;11.89;57.55;99502.30;223564;182;138322;-63
2023/05/05 00:42:51;;;;;;;18.20;6.40;;;;;;;11.83;57.72;99495.70;223718;182;137050;-66
2023/05/05 00:47:56;;;;;;;11.50;6.60;;;;;;;11.78;58.15;99492.44;223682;182;147352;-64
2023/05/05 00:53:01;;;;;;;11.70;6.10;;;;;;;11.72;58.29;99498.68;223730;182;138999;-66
2023/05/05 00:58:05;;;;;;;9.60;6.30;;;;;;;11.66;58.51;99499.02;223637;183;138047;-66
2023/05/05 01:03:08;;;;;;;10.70;6.30;;;;;;;11.61;58.55;99506.23;223557;182;147182;-66
2023/05/05 01:08:28;;;;;;;12.90;7.20;;;;;;;11.51;58.61;99509.48;223638;181;138491;-67
2023/05/05 01:13:44;;;;;;;11.00;6.20;;;;;;;11.40;58.85;99503.89;223694;182;138041;-63
2023/05/05 01:19:04;;;;;;;9.70;6.60;;;;;;;11.31;59.19;99493.25;223788;182;147652;-67
2023/05/05 01:24:30;;;;;;;10.80;6.70;;;;;;;11.26;59.37;99493.17;223767;181;138422;-68
2023/05/05 01:29:51;;;;;;;13.70;6.20;;;;;;;11.16;59.34;99486.98;223798;183;136712;-65
2023/05/05 01:35:14;;;;;;;9.90;6.60;;;;;;;11.09;59.44;99485.59;223760;183;147655;-66
2023/05/05 01:40:24;;;;;;;10.60;6.70;;;;;;;11.04;59.42;99486.77;223685;182;140230;-69
2023/05/05 01:45:31;;;;;;;9.30;7.10;;;;;;;10.98;59.68;99480.02;223804;179;137198;-64
2023/05/05 01:50:35;;;;;;;13.90;6.90;;;;;;;10.95;59.76;99480.90;223748;182;146808;-66
2023/05/05 01:55:40;;;;;;;9.80;6.40;;;;;;;10.91;59.81;99479.35;223854;182;138224;-66
2023/05/05 02:00:43;;;;;;;14.80;6.60;;;;;;;10.87;59.93;99474.77;223756;182;136848;-65
2023/05/05 02:05:57;;;;;;;14.40;6.80;;;;;;;10.85;59.94;99474.75;223430;182;147878;-65
2023/05/05 02:11:01;;;;;;;12.60;7.10;;;;;;;10.79;59.87;99475.59;223822;182;138446;-67
2023/05/05 02:16:05;;;;;;;9.50;6.70;;;;;;;10.74;60.04;99476.77;223883;182;136969;-66
2023/05/05 02:21:09;;;;;;;10.60;6.60;;;;;;;10.70;60.23;99481.23;223846;182;147815;-68
2023/05/05 02:26:15;;;;;;;11.50;7.60;;;;;;;10.64;60.24;99482.80;223819;182;138143;-63
2023/05/05 02:31:21;;;;;;;11.30;7.60;;;;;;;10.63;60.41;99483.06;223835;182;137413;-63
2023/05/05 02:36:28;;;;;;;11.00;6.90;;;;;;;10.60;60.76;99485.52;223792;182;146835;-62
2023/05/05 02:41:37;;;;;;;10.70;7.50;;;;;;;10.59;60.82;99484.35;223736;183;138868;-61
2023/05/05 02:46:46;;;;;;;18.60;7.20;;;;;;;10.55;61.18;99481.55;223695;183;137438;-60
2023/05/05 02:51:50;;;;;;;35.50;20.50;;;;;;;10.49;61.07;99481.38;223854;183;147126;-61
2023/05/05 02:56:58;;;;;;;36.60;22.30;;;;;;;10.50;61.39;99483.95;223488;182;138254;-61
2023/05/05 03:02:10;;;;;;;17.80;8.20;;;;;;;10.55;61.66;99499.29;223776;182;137779;-67
2023/05/05 03:07:22;;;;;;;22.60;8.30;;;;;;;10.51;60.91;99492.05;223770;182;147619;-66
2023/05/05 03:12:35;;;;;;;23.00;8.30;;;;;;;10.45;61.08;99491.34;223648;183;140898;-65
2023/05/05 03:17:54;;;;;;;23.80;7.70;;;;;;;10.39;61.22;99499.07;223875;182;137153;-64
2023/05/05 03:23:00;;;;;;;13.00;7.50;;;;;;;10.34;61.53;99500.73;223780;182;147558;-64
2023/05/05 03:28:03;;;;;;;41.70;29.30;;;;;;;10.31;61.39;99503.96;223715;182;138863;-63
2023/05/05 03:33:09;;;;;;;20.90;8.10;;;;;;;10.32;61.69;99500.15;223767;182;150127;-64
2023/05/05 03:38:13;;;;;;;16.30;7.60;;;;;;;10.29;61.69;99500.84;223743;182;147153;-67
2023/05/05 03:43:18;;;;;;;17.80;8.20;;;;;;;10.27;61.85;99494.41;223699;182;138893;-63
2023/05/05 03:48:21;;;;;;;16.50;6.90;;;;;;;10.29;61.81;99498.73;223888;182;138178;-63
2023/05/05 03:53:25;;;;;;;14.60;6.90;;;;;;;10.27;61.54;99503.08;223785;182;147012;-64
2023/05/05 03:58:29;;;;;;;26.20;14.80;;;;;;;10.22;62.35;99506.16;223785;182;139192;-71
2023/05/05 04:03:33;;;;;;;21.00;8.20;;;;;;;10.25;62.07;99498.75;223802;182;137438;-63
2023/05/05 04:08:36;;;;;;;20.70;8.10;;;;;;;10.29;62.02;99494.30;223781;182;148304;-63
2023/05/05 04:13:40;;;;;;;12.00;7.40;;;;;;;10.29;61.79;99497.14;223737;182;138452;-66
2023/05/05 04:18:44;;;;;;;10.40;7.20;;;;;;;10.33;61.59;99494.27;223789;182;137073;-67
2023/05/05 04:23:47;;;;;;;11.40;7.90;;;;;;;10.38;61.58;99499.65;223871;182;146906;-62
2023/05/05 04:28:51;;;;;;;13.10;7.80;;;;;;;10.43;61.63;99502.59;223672;182;139826;-65
2023/05/05 04:33:55;;;;;;;15.70;8.30;;;;;;;10.49;61.67;99501.03;223736;182;137132;-66
2023/05/05 04:39:01;;;;;;;17.80;8.90;;;;;;;10.58;61.50;99502.13;223821;182;147110;-69
2023/05/05 04:44:11;;;;;;;13.00;8.50;;;;;;;10.67;61.38;99503.22;223658;178;139071;-68
2023/05/05 04:49:14;;;;;;;14.80;8.30;;;;;;;10.75;61.39;99509.02;223776;182;137374;-63
2023/05/05 04:54:18;;;;;;;11.70;8.20;;;;;;;10.86;61.47;99516.21;223812;182;148850;-62
2023/05/05 04:59:21;;;;;;;13.60;8.20;;;;;;;10.99;61.26;99515.67;223846;182;138474;-66
2023/05/05 05:04:28;;;;;;;15.60;7.80;;;;;;;11.14;61.18;99521.59;223836;179;137324;-65
2023/05/05 05:09:36;;;;;;;15.00;8.80;;;;;;;11.27;60.97;99517.83;223807;182;147137;-64
2023/05/05 05:14:40;;;;;;;14.30;8.10;;;;;;;11.38;60.81;99514.31;223844;183;139941;-64
2023/05/05 05:19:43;;;;;;;20.30;8.90;;;;;;;11.53;60.66;99514.37;223788;182;137428;-69
2023/05/05 05:24:47;;;;;;;19.40;9.50;;;;;;;11.70;60.37;99521.91;223713;182;147267;-69
2023/05/05 05:29:50;;;;;;;24.20;10.30;;;;;;;11.84;59.92;99526.97;223767;182;138112;-64
2023/05/05 05:34:53;;;;;;;18.10;10.00;;;;;;;11.97;59.72;99531.14;223778;182;137745;-63
2023/05/05 05:39:56;;;;;;;19.50;9.80;;;;;;;12.09;59.69;99534.68;223788;181;147343;-63
2023/05/05 05:45:00;;;;;;;20.10;9.20;;;;;;;12.22;59.78;99533.58;223723;182;138556;-64
2023/05/05 05:50:05;;;;;;;18.40;9.20;;;;;;;12.33;59.76;99537.54;223707;182;137189;-65
2023/05/05 05:55:09;;;;;;;12.30;8.60;;;;;;;12.47;59.43;99536.30;223728;182;147723;-66
2023/05/05 06:00:14;;;;;;;15.70;9.20;;;;;;;12.59;58.49;99532.38;223819;183;138455;-68
2023/05/05 06:05:19;;;;;;;16.70;9.70;;;;;;;12.70;58.08;99537.20;223816;183;137349;-64
2023/05/05 06:10:22;;;;;;;13.60;8.40;;;;;;;12.80;57.60;99538.88;223779;183;147603;-65
2023/05/05 06:15:35;;;;;;;14.10;8.20;;;;;;;12.86;57.42;99538.85;223786;182;138340;-67
2023/05/05 06:20:38;;;;;;;13.80;9.00;;;;;;;12.92;57.37;99539.73;223764;182;137789;-66
2023/05/05 06:25:42;;;;;;;15.60;8.30;;;;;;;12.98;57.52;99544.52;223806;183;147906;-66
2023/05/05 06:30:45;;;;;;;15.40;9.30;;;;;;;13.01;57.53;99544.95;223735;183;138550;-67
2023/05/05 06:35:50;;;;;;;17.80;9.00;;;;;;;13.09;57.73;99542.39;223835;182;138247;-64
2023/05/05 06:40:53;;;;;;;16.70;8.60;;;;;;;13.16;57.90;99544.58;223708;182;148690;-63
2023/05/05 06:45:56;;;;;;;12.80;8.10;;;;;;;13.29;58.19;99545.88;223825;182;138673;-65
2023/05/05 06:50:59;;;;;;;13.00;8.30;;;;;;;13.42;58.23;99542.91;223729;182;138067;-64
2023/05/05 06:56:05;;;;;;;17.10;8.00;;;;;;;13.57;58.15;99543.20;223798;182;146936;-64
2023/05/05 07:01:09;;;;;;;15.90;7.70;;;;;;;13.69;57.94;99541.83;223694;182;138279;-65
2023/05/05 07:06:12;;;;;;;16.40;7.60;;;;;;;13.82;57.38;99541.01;223790;182;138047;-65
2023/05/05 07:11:15;;;;;;;9.50;6.70;;;;;;;13.96;57.10;99548.23;223833;182;147842;-66
2023/05/05 07:16:18;;;;;;;11.20;6.90;;;;;;;14.13;56.95;99543.48;223785;179;139126;-65
2023/05/05 07:21:21;;;;;;;12.20;7.10;;;;;;;14.30;56.78;99534.70;223739;182;137197;-64
2023/05/05 07:26:25;;;;;;;11.70;6.90;;;;;;;14.43;56.31;99532.50;223812;182;147181;-67
2023/05/05 07:31:28;;;;;;;10.40;5.50;;;;;;;14.58;55.82;99528.27;223841;182;138411;-71
2023/05/05 07:36:31;;;;;;;8.20;4.80;;;;;;;14.69;55.32;99525.31;223792;182;137221;-65
2023/05/05 07:41:34;;;;;;;7.30;4.60;;;;;;;14.84;54.99;99527.64;223805;182;147454;-65
2023/05/05 07:46:37;;;;;;;9.50;4.70;;;;;;;14.97;53.65;99527.98;223722;183;138747;-65
2023/05/05 07:51:41;;;;;;;6.80;4.40;;;;;;;15.10;52.71;99525.77;223778;182;137165;-65
2023/05/05 07:56:45;;;;;;;7.00;3.60;;;;;;;15.21;51.39;99524.94;223737;182;147054;-66
2023/05/05 08:01:48;;;;;;;8.20;4.30;;;;;;;15.38;50.96;99519.63;223727;182;138956;-64
2023/05/05 08:06:51;;;;;;;12.30;6.20;;;;;;;15.51;50.78;99519.00;223674;182;136511;-66
2023/05/05 08:11:54;;;;;;;7.50;4.60;;;;;;;15.59;50.25;99515.54;223703;182;147621;-64
2023/05/05 08:16:57;;;;;;;9.60;4.70;;;;;;;15.76;49.91;99512.50;223750;183;139055;-68
2023/05/05 08:22:00;;;;;;;8.40;4.70;;;;;;;15.86;49.87;99511.58;223750;182;137389;-69
2023/05/05 08:27:03;;;;;;;8.50;4.30;;;;;;;15.96;49.75;99513.46;223841;182;148974;-66
2023/05/05 08:32:07;;;;;;;11.30;4.60;;;;;;;16.07;48.96;99517.46;223665;182;138132;-65
2023/05/05 08:37:10;;;;;;;9.70;4.00;;;;;;;16.23;47.46;99518.21;223693;182;137825;-64
2023/05/05 08:42:13;;;;;;;6.60;3.50;;;;;;;16.38;46.45;99515.05;223750;183;146759;-66
2023/05/05 08:47:36;;;;;;;5.30;3.70;;;;;;;16.56;46.49;99508.58;223690;182;139143;-67
2023/05/05 08:52:44;;;;;;;7.10;3.20;;;;;;;16.75;46.49;99508.88;223847;182;137624;-66
2023/05/05 08:57:53;;;;;;;5.70;3.20;;;;;;;16.89;46.25;99506.18;223840;182;147126;-68
2023/05/05 09:02:58;;;;;;;6.70;2.40;;;;;;;17.03;45.15;99505.56;223802;182;138440;-68
2023/05/05 09:08:04;;;;;;;6.80;2.40;;;;;;;17.11;44.26;99497.38;223857;182;136937;-64
2023/05/05 09:13:08;;;;;;;5.10;2.50;;;;;;;17.19;44.65;99499.98;223786;182;147675;-63
2023/05/05 09:18:11;;;;;;;5.70;3.10;;;;;;;17.34;44.39;99500.92;223658;182;138349;-62
2023/05/05 09:23:17;;;;;;;17.40;12.80;;;;;;;17.46;45.10;99499.38;223689;182;137702;-66
2023/05/05 09:28:20;;;;;;;;;;;;;;;17.71;45.34;99506.57;223741;182;148386;-65
2023/05/05 09:33:30;;;;;;;6.20;3.90;;;;;;;17.97;44.58;99502.67;223820;183;138656;-64
2023/05/05 09:38:34;;;;;;;9.10;3.90;;;;;;;18.23;45.71;99501.65;223746;182;136938;-61
2023/05/05 09:43:49;;;;;;;6.70;3.20;;;;;;;18.46;45.47;99500.16;223697;183;146987;-62
2023/05/05 09:48:52;;;;;;;5.90;3.20;;;;;;;18.68;44.38;99499.36;223699;182;138381;-62
2023/05/05 09:53:56;;;;;;;7.40;3.20;;;;;;;18.86;44.99;99494.55;223723;181;138183;-62
2023/05/05 09:59:10;;;;;;;6.80;2.80;;;;;;;19.05;44.49;99490.14;223682;182;147246;-67
2023/05/05 10:04:28;;;;;;;85.60;66.40;;;;;;;19.25;43.76;99488.45;223677;182;138342;-64
2023/05/05 10:09:31;;;;;;;10.50;7.30;;;;;;;19.48;43.26;99483.89;223718;182;136831;-63
2023/05/05 10:14:35;;;;;;;4.50;3.40;;;;;;;19.71;43.58;99484.15;223760;182;147651;-63
2023/05/05 10:25:38;;;;;;;4.90;2.80;;;;;;;20.12;42.85;99472.17;221524;192;665678;-75
2023/05/05 10:30:45;;;;;;;94.60;67.00;;;;;;;20.27;42.40;99472.02;223396;183;135509;-77
2023/05/05 10:35:54;;;;;;;7.60;5.30;;;;;;;20.42;42.05;99466.75;222953;183;144255;-77
2023/05/05 10:41:14;;;;;;;10.20;4.00;;;;;;;20.60;41.97;99464.14;223727;183;137961;-77
2023/05/05 10:46:18;;;;;;;14.70;7.90;;;;;;;20.80;41.31;99462.08;223872;182;136181;-77
2023/05/05 10:51:27;;;;;;;8.30;4.50;;;;;;;20.97;40.96;99458.70;223752;183;144456;-80
2023/05/05 10:56:43;;;;;;;6.50;3.20;;;;;;;21.18;40.05;99456.06;223311;183;139963;-79
2023/05/05 11:01:49;;;;;;;4.40;2.50;;;;;;;21.38;39.42;99450.95;223792;183;137133;-76
2023/05/05 11:07:10;;;;;;;4.70;2.70;;;;;;;21.46;38.62;99444.48;223738;183;143435;-79
2023/05/05 11:12:17;;;;;;;5.80;3.10;;;;;;;21.50;38.82;99439.27;223766;183;138765;-79
2023/05/05 11:17:46;;;;;;;6.70;3.00;;;;;;;21.46;37.87;99438.85;223745;182;137197;-79
2023/05/05 11:23:02;;;;;;;4.20;2.60;;;;;;;21.61;38.23;99434.38;223824;182;144965;-80
2023/05/05 11:28:07;;;;;;;3.40;2.30;;;;;;;21.81;37.28;99431.59;223738;182;138734;-80
2023/05/05 11:33:30;;;;;;;6.20;2.80;;;;;;;21.93;37.50;99428.33;223853;183;136054;-78
2023/05/05 11:39:04;;;;;;;9.20;2.70;;;;;;;21.96;36.56;99430.75;223803;182;145430;-78
2023/05/05 11:44:10;;;;;;;4.30;2.50;;;;;;;21.94;36.33;99429.35;221894;182;138589;-78
2023/05/05 11:49:31;;;;;;;5.90;2.10;;;;;;;22.09;35.77;99428.11;219947;182;136197;-79
2023/05/05 11:54:39;;;;;;;6.10;2.30;;;;;;;22.19;35.03;99427.26;222968;182;145306;-79
2023/05/05 11:59:50;;;;;;;4.00;1.90;;;;;;;22.44;34.64;99427.90;221354;183;139191;-80
2023/05/05 12:04:55;;;;;;;7.40;2.40;;;;;;;22.75;34.39;99420.24;223773;182;137086;-78
2023/05/05 12:09:59;;;;;;;3.20;1.90;;;;;;;23.04;33.88;99415.80;223704;183;145839;-65
2023/05/05 12:15:03;;;;;;;3.60;1.90;;;;;;;23.27;32.97;99412.74;223617;183;138364;-67
2023/05/05 12:20:07;;;;;;;3.50;1.80;;;;;;;23.44;32.63;99412.33;223743;184;137235;-66
2023/05/05 12:25:11;;;;;;;3.20;1.90;;;;;;;23.70;33.00;99408.40;223539;184;145097;-64
2023/05/05 12:30:16;;;;;;;3.20;1.90;;;;;;;23.93;32.91;99406.20;223649;183;140647;-65
2023/05/05 12:35:20;;;;;;;6.30;2.20;;;;;;;24.11;31.13;99394.16;223704;183;136744;-65
2023/05/05 12:40:42;;;;;;;36.50;31.40;;;;;;;24.18;32.08;99391.77;223589;183;145821;-62
2023/05/05 12:45:45;;;;;;;5.10;3.20;;;;;;;24.32;32.26;99387.78;223641;183;139149;-62
2023/05/05 12:50:48;;;;;;;5.70;2.40;;;;;;;24.47;31.55;99381.98;223664;183;136556;-60
2023/05/05 12:55:51;;;;;;;3.30;1.90;;;;;;;24.65;31.77;99386.57;223571;180;145275;-63
2023/05/05 13:01:09;;;;;;;4.20;2.00;;;;;;;24.81;30.69;99377.81;223567;183;138398;-62
2023/05/05 13:06:19;;;;;;;3.70;1.90;;;;;;;25.03;30.00;99373.61;223589;183;136633;-64
2023/05/05 13:11:23;;;;;;;4.90;2.20;;;;;;;25.13;28.88;99368.67;223639;183;145896;-64
2023/05/05 13:16:26;;;;;;;3.70;1.80;;;;;;;25.15;29.14;99363.54;223637;183;139369;-64
2023/05/05 13:21:30;;;;;;;2.00;1.60;;;;;;;25.28;29.11;99354.37;223665;183;136579;-64
2023/05/05 13:26:35;;;;;;;3.90;2.50;;;;;;;25.26;29.03;99352.98;223608;183;145139;-62
2023/05/05 13:31:38;;;;;;;3.80;1.70;;;;;;;25.34;29.12;99351.15;223606;183;138991;-62
2023/05/05 13:36:41;;;;;;;2.40;1.60;;;;;;;25.48;28.21;99341.59;223696;183;137748;-63
2023/05/05 13:41:45;;;;;;;4.90;1.50;;;;;;;25.68;28.01;99338.69;223558;183;145520;-63
2023/05/05 13:46:48;;;;;;;7.90;2.30;;;;;;;25.68;27.70;99335.55;223549;183;138459;-66
2023/05/05 13:51:51;;;;;;;4.20;1.80;;;;;;;25.77;27.08;99333.19;223704;183;137036;-64
2023/05/05 13:56:54;;;;;;;2.80;1.70;;;;;;;25.79;27.42;99329.98;223636;180;145956;-62
2023/05/05 14:01:57;;;;;;;3.60;1.80;;;;;;;25.69;27.76;99321.60;223501;183;139441;-64
2023/05/05 14:07:00;;;;;;;5.20;1.50;;;;;;;25.60;28.06;99314.73;223507;183;136751;-65
2023/05/05 14:12:04;;;;;;;4.40;1.90;;;;;;;25.50;28.99;99317.63;223606;183;145348;-63
2023/05/05 14:17:07;;;;;;;4.90;1.60;;;;;;;25.40;29.00;99308.98;223662;183;138396;-63
2023/05/05 14:22:11;;;;;;;13.10;9.70;;;;;;;25.23;29.29;99308.81;223650;183;137331;-62
2023/05/05 14:27:14;;;;;;;9.70;4.40;;;;;;;24.97;28.28;99309.03;223719;183;145405;-62
2023/05/05 14:32:17;;;;;;;6.30;2.60;;;;;;;24.76;28.53;99305.16;223574;183;138491;-63
2023/05/05 14:37:20;;;;;;;5.10;2.50;;;;;;;24.48;28.00;99305.41;223789;183;137628;-64
2023/05/05 14:42:26;;;;;;;4.70;2.00;;;;;;;24.20;28.36;99304.49;223767;182;145082;-63
2023/05/05 14:47:29;;;;;;;4.50;1.70;;;;;;;23.92;29.18;99301.19;223720;182;138889;-65
2023/05/05 14:52:32;;;;;;;4.50;1.60;;;;;;;23.62;29.59;99300.68;223754;182;138332;-63
2023/05/05 14:57:37;;;;;;;3.50;1.50;;;;;;;23.34;29.71;99297.38;223703;182;145821;-63
2023/05/05 15:02:40;;;;;;;6.00;1.70;;;;;;;23.09;29.83;99294.34;223669;183;138494;-62
2023/05/05 15:07:43;;;;;;;3.80;1.40;;;;;;;22.87;30.30;99298.91;223745;183;136683;-64
2023/05/05 15:12:47;;;;;;;7.80;1.80;;;;;;;22.67;30.18;99305.95;223872;183;146146;-66
2023/05/05 15:17:50;;;;;;;2.10;1.60;;;;;;;22.49;30.49;99309.47;223801;182;138408;-64
2023/05/05 15:22:56;;;;;;;4.80;1.60;;;;;;;22.31;30.03;99304.72;223707;180;137492;-64
2023/05/05 15:28:00;;;;;;;3.60;1.30;;;;;;;22.23;28.96;99306.32;223704;183;145106;-64
2023/05/05 15:33:03;;;;;;;3.40;1.80;;;;;;;22.18;28.19;99307.41;223812;182;140061;-65
2023/05/05 15:38:06;;;;;;;3.20;1.80;;;;;;;22.22;28.58;99304.05;223896;182;136916;-69
2023/05/05 15:43:09;;;;;;;7.70;1.90;;;;;;;22.24;29.66;99308.34;223899;182;145595;-66
2023/05/05 15:48:12;;;;;;;10.20;1.60;;;;;;;22.25;29.44;99310.31;223792;182;138485;-65
2023/05/05 15:53:15;;;;;;;2.70;1.70;;;;;;;22.39;28.98;99305.64;223745;182;137622;-66
2023/05/05 15:58:18;;;;;;;3.80;1.30;;;;;;;22.74;28.24;99304.41;223640;183;146052;-65
2023/05/05 16:03:21;;;;;;;3.40;1.80;;;;;;;23.02;28.08;99299.62;223775;182;138272;-64
2023/05/05 16:08:24;;;;;;;3.70;2.20;;;;;;;23.04;28.27;99296.34;223777;182;137693;-64
2023/05/05 16:13:28;;;;;;;7.20;2.70;;;;;;;23.33;28.44;99297.62;223664;182;145947;-67
2023/05/05 16:18:32;;;;;;;7.60;3.20;;;;;;;23.41;28.66;99293.64;223739;183;140415;-65
2023/05/05 16:23:35;;;;;;;3.20;1.90;;;;;;;23.02;28.97;99289.51;223755;182;136476;-65
2023/05/05 16:28:38;;;;;;;7.50;2.90;;;;;;;22.66;29.15;99288.25;223746;182;145053;-65
2023/05/05 16:33:42;;;;;;;4.10;1.90;;;;;;;22.32;29.84;99286.19;223698;182;138413;-65
2023/05/05 16:38:46;;;;;;;7.20;2.30;;;;;;;22.02;30.81;99290.10;223509;192;137376;-65
2023/05/05 16:43:49;;;;;;;3.90;1.90;;;;;;;21.75;31.10;99286.09;223598;182;147304;-65
2023/05/05 16:48:52;;;;;;;10.00;2.10;;;;;;;21.47;31.59;99283.77;223430;186;139241;-66
2023/05/05 16:54:01;;;;;;;11.00;2.40;;;;;;;21.22;32.33;99289.17;223526;217;136562;-64
2023/05/05 16:59:04;;;;;;;7.00;2.20;;;;;;;20.96;32.89;99288.20;223573;216;146205;-67
2023/05/05 17:04:07;;;;;;;5.60;2.40;;;;;;;20.69;33.63;99291.11;223461;216;138361;-65
2023/05/05 17:09:10;;;;;;;5.40;2.50;;;;;;;20.47;34.26;99291.26;223504;213;137611;-65
2023/05/05 17:14:13;;;;;;;5.90;2.40;;;;;;;20.30;34.36;99292.09;223420;183;145584;-66
2023/05/05 17:19:16;;;;;;;9.20;2.40;;;;;;;20.11;34.84;99294.14;223520;185;138419;-64
2023/05/05 17:24:19;;;;;;;8.20;2.10;;;;;;;19.92;35.13;99299.70;223441;209;138062;-69
2023/05/05 17:29:23;;;;;;;9.80;3.60;;;;;;;19.77;35.72;99305.50;223531;193;145802;-66
2023/05/05 17:34:26;;;;;;;7.90;2.20;;;;;;;19.62;36.04;99303.34;223420;216;139411;-66
2023/05/05 17:39:29;;;;;;;12.80;2.40;;;;;;;19.49;36.49;99309.95;223450;183;137288;-66
2023/05/05 17:44:35;;;;;;;8.30;2.70;;;;;;;19.32;37.14;99306.48;223458;183;145259;-62
2023/05/05 17:49:39;;;;;;;3.10;2.40;;;;;;;19.16;37.71;99310.85;223515;210;138678;-63
2023/05/05 17:54:42;;;;;;;6.90;2.80;;;;;;;18.99;38.31;99309.07;223539;184;137228;-64
2023/05/05 17:59:50;;;;;;;4.50;2.40;;;;;;;18.82;38.60;99313.52;223522;183;145793;-65
2023/05/05 18:04:53;;;;;;;40.60;26.30;;;;;;;18.66;39.16;99316.02;222215;216;140401;-65
2023/05/05 18:09:57;;;;;;;5.50;3.20;;;;;;;18.56;39.53;99317.81;223512;217;137122;-63
2023/05/05 18:15:00;;;;;;;4.30;3.00;;;;;;;18.41;39.77;99318.30;223529;216;145547;-62
2023/05/05 18:20:05;;;;;;;7.00;3.30;;;;;;;18.27;40.06;99319.40;223479;216;138116;-64
2023/05/05 18:25:09;;;;;;;9.90;2.80;;;;;;;18.12;40.30;99326.60;223500;205;137516;-63
2023/05/05 18:30:12;;;;;;;6.40;3.10;;;;;;;18.00;40.46;99331.44;223536;206;145600;-63
2023/05/05 18:35:16;;;;;;;8.60;3.30;;;;;;;17.94;40.56;99335.86;223511;206;138285;-63
2023/05/05 18:40:20;;;;;;;7.30;3.80;;;;;;;17.85;40.73;99339.02;223463;214;139014;-63
2023/05/05 18:45:23;;;;;;;11.50;4.10;;;;;;;17.73;41.11;99344.69;223513;184;145303;-62
2023/05/05 18:50:32;;;;;;;8.60;4.00;;;;;;;17.63;41.09;99344.38;223476;194;138183;-62
2023/05/05 18:55:41;;;;;;;13.10;4.60;;;;;;;17.46;41.42;99347.43;223536;184;137470;-62
2023/05/05 19:00:44;;;;;;;9.10;5.20;;;;;;;17.31;41.59;99348.67;223447;205;147563;-65
2023/05/05 19:05:47;;;;;;;8.70;4.80;;;;;;;17.16;42.25;99347.80;223430;206;139146;-66
2023/05/05 19:10:50;;;;;;;8.30;5.30;;;;;;;17.04;42.70;99347.55;223416;216;137616;-63
2023/05/05 19:15:55;;;;;;;9.80;4.70;;;;;;;16.93;43.23;99348.30;223407;217;147116;-64
2023/05/05 19:20:59;;;;;;;;;;;;;;;16.82;43.72;99345.66;223432;183;139791;-63
2023/05/05 19:26:02;;;;;;;8.60;5.80;;;;;;;16.69;44.16;99340.95;223473;183;131036;-62
2023/05/05 19:31:06;;;;;;;11.10;6.20;;;;;;;16.58;44.41;99334.54;223468;217;147330;-63
2023/05/05 19:36:09;;;;;;;12.20;6.70;;;;;;;16.47;44.72;99333.08;223257;183;138381;-64
2023/05/05 19:41:12;;;;;;;11.00;6.70;;;;;;;16.37;44.93;99329.79;221616;183;137570;-65
2023/05/05 19:46:16;;;;;;;11.70;6.20;;;;;;;16.29;45.06;99329.21;222222;210;147541;-65
2023/05/05 19:51:25;;;;;;;11.10;6.20;;;;;;;16.22;44.85;99337.08;223265;183;140821;-64
2023/05/05 19:56:30;;;;;;;9.40;6.30;;;;;;;16.18;44.78;99338.82;223284;183;138099;-63
2023/05/05 20:01:33;;;;;;;13.50;6.10;;;;;;;16.15;44.72;99340.49;223297;184;147153;-65
2023/05/05 20:06:37;;;;;;;18.30;12.60;;;;;;;16.09;44.99;99338.63;223078;183;140568;-66
2023/05/05 20:11:40;;;;;;;11.80;5.90;;;;;;;16.07;45.79;99342.21;223344;183;139468;-64
2023/05/05 20:16:43;;;;;;;128.40;88.10;;;;;;;16.08;44.85;99335.87;223287;184;147081;-64
2023/05/05 20:21:46;;;;;;;12.70;6.50;;;;;;;16.03;44.74;99333.19;223287;183;139078;-65
2023/05/05 20:26:49;;;;;;;9.40;5.20;;;;;;;15.97;44.84;99335.65;223265;183;137843;-65
2023/05/05 20:31:53;;;;;;;8.40;5.00;;;;;;;15.96;45.17;99334.36;223316;183;147446;-64
2023/05/05 20:36:56;;;;;;;11.00;5.10;;;;;;;15.97;45.19;99331.05;223297;183;138349;-62
2023/05/05 20:42:00;;;;;;;7.20;4.70;;;;;;;15.98;44.75;99324.81;223289;184;137925;-64
2023/05/05 20:47:03;;;;;;;127.10;101.90;;;;;;;15.99;44.96;99322.96;223334;184;147783;-63
2023/05/05 20:52:06;;;;;;;37.40;17.60;;;;;;;16.02;44.87;99319.56;223388;189;138525;-64
2023/05/05 20:57:10;;;;;;;12.10;6.40;;;;;;;16.02;44.84;99319.34;223467;183;137543;-65
2023/05/05 21:02:13;;;;;;;9.50;5.00;;;;;;;15.96;45.59;99316.10;223338;182;147864;-64
2023/05/05 21:07:16;;;;;;;7.20;4.60;;;;;;;15.88;45.44;99323.52;223287;182;138375;-65
2023/05/05 21:12:19;;;;;;;10.10;5.00;;;;;;;15.79;45.96;99331.55;223352;183;138090;-64
2023/05/05 21:17:23;;;;;;;8.80;5.80;;;;;;;15.71;46.58;99334.90;223287;182;147199;-65
2023/05/05 21:22:26;;;;;;;9.40;5.60;;;;;;;15.63;47.02;99330.85;223395;205;139559;-66
2023/05/05 21:27:29;;;;;;;11.10;5.30;;;;;;;15.53;47.11;99330.52;223362;184;136454;-66
2023/05/05 21:32:33;;;;;;;7.90;5.40;;;;;;;15.46;47.35;99335.04;223321;183;147122;-64
2023/05/05 21:37:37;;;;;;;9.80;5.90;;;;;;;15.39;47.22;99332.16;223325;205;138821;-65
2023/05/05 21:42:41;;;;;;;7.90;5.40;;;;;;;15.30;47.29;99328.36;223348;183;137678;-64
2023/05/05 21:47:44;;;;;;;9.20;4.90;;;;;;;15.22;47.76;99321.46;223331;183;147107;-64
2023/05/05 21:52:47;;;;;;;11.70;5.30;;;;;;;15.13;48.17;99321.08;223423;185;139195;-65
2023/05/05 21:57:50;;;;;;;10.90;4.80;;;;;;;15.05;48.29;99318.46;223444;184;137021;-63
2023/05/05 22:02:53;;;;;;;10.30;4.20;;;;;;;15.00;48.44;99316.14;223386;183;147560;-65
2023/05/05 22:07:56;;;;;;;6.50;4.50;;;;;;;14.95;48.80;99314.95;223281;183;138268;-63
2023/05/05 22:13:00;;;;;;;7.10;4.10;;;;;;;14.85;48.97;99313.21;223335;183;137115;-62
2023/05/05 22:18:03;;;;;;;7.20;4.20;;;;;;;14.73;49.25;99316.44;223266;183;147941;-63
2023/05/05 22:23:06;;;;;;;5.20;3.70;;;;;;;14.68;49.70;99316.27;223255;183;155117;-64
2023/05/05 22:28:10;;;;;;;4.70;3.30;;;;;;;14.63;49.29;99310.92;223362;194;137367;-63
2023/05/05 22:33:14;;;;;;;7.10;3.70;;;;;;;14.65;49.22;99315.62;223413;184;146700;-65
2023/05/05 22:38:17;;;;;;;5.40;3.30;;;;;;;14.61;49.36;99318.73;223316;184;139349;-66
2023/05/05 22:43:20;;;;;;;5.30;3.20;;;;;;;14.55;49.49;99317.98;223325;183;137038;-64
2023/05/05 22:48:23;;;;;;;6.40;3.40;;;;;;;14.54;49.26;99316.05;223369;183;147115;-65
2023/05/05 22:53:26;;;;;;;8.00;3.60;;;;;;;14.51;49.07;99317.34;223269;183;139127;-63
2023/05/05 22:58:29;;;;;;;5.30;3.70;;;;;;;14.49;49.27;99315.14;223461;194;137424;-64
2023/05/05 23:03:33;;;;;;;6.50;3.30;;;;;;;14.40;49.36;99321.52;223297;184;147031;-65
2023/05/05 23:08:36;;;;;;;6.00;3.80;;;;;;;14.34;49.43;99321.64;223509;183;138273;-64
2023/05/05 23:13:39;;;;;;;7.10;3.90;;;;;;;14.34;49.32;99321.80;223428;183;137540;-63
2023/05/05 23:18:42;;;;;;;7.20;3.70;;;;;;;14.26;49.28;99316.16;223381;183;147029;-64
2023/05/05 23:23:46;;;;;;;6.10;3.90;;;;;;;14.21;49.62;99310.77;223273;183;139304;-65
2023/05/05 23:28:48;;;;;;;9.00;4.10;;;;;;;14.14;50.10;99303.73;223426;210;139418;-64
2023/05/05 23:33:52;;;;;;;7.40;3.90;;;;;;;14.08;49.97;99296.55;223411;183;147558;-65
2023/05/05 23:38:55;;;;;;;9.00;3.60;;;;;;;14.03;50.16;99286.54;223368;183;142001;-64